Cygnus — 9HA2105 — position and weather

sailwx.info

Track history (hours):
 
Tides and Currents Weather Stations Pressure Air Temp Water Temp Dewpoint Dewpoint Depression Visibility Wind Speed Wind Dir Waves Ship Positions

Cygnus

Last reported at 2014-Aug-21 23:05 UTC. Time now 2014-Aug-23 13:31 UTC.
Position N 36°39' E 026°31'.

Length 177 m; draft 9.6 m.

Type: Cargo ship. MMSI: 249963000.

Date/timePositionNaut miles runAvg speedWind from/ knotsBaromVisibWave heightAir tempDewpointWater temp
2014-Aug-21 23:05N 36°39' E 026°31'812.1
2014-Aug-21 22:28N 36°45' E 026°25'1312.7
2014-Aug-21 21:24N 36°55' E 026°14'1113.2
2014-Aug-21 20:33N 37°05' E 026°07'1312.9
2014-Aug-21 19:33N 37°16' E 025°59'1212.5
2014-Aug-21 18:33N 37°28' E 025°54'2812.3
2014-Aug-21 16:16N 37°55' E 025°45'23510.3
2014-Aug-20 17:30N 40°58' E 028°57'  
2014-Aug-14 14:31N 43°56' E 038°43'1313.9
2014-Aug-14 13:33N 43°52' E 038°26'1414.0
2014-Aug-14 12:34N 43°48' E 038°07'144 7.2
2014-Aug-13 16:32N 43°08' E 034°56'0 0.1
2014-Aug-13 15:32N 43°08' E 034°56'0 0.2
2014-Aug-13 14:32N 43°08' E 034°56'2 0.3
2014-Aug-13 07:16N 43°10' E 034°56'1 1.4
2014-Aug-13 06:32N 43°11' E 034°54'29512.3
2014-Aug-12 06:33N 40°58' E 028°59'  
Track history (hours):
 
Tides and Currents Weather Stations Pressure Air Temp Water Temp Dewpoint Dewpoint Depression Visibility Wind Speed Wind Dir Waves Ship Positions

Cygnus

Last reported at 2014-Aug-21 23:05 UTC. Time now 2014-Aug-23 13:31 UTC.
Position N 36°39' E 026°31'.

Length 177 m; draft 9.6 m.

Type: Cargo ship. MMSI: 249963000.

Date/timePositionNaut miles runAvg speedWind from/ knotsBaromVisibWave heightAir tempDewpointWater temp
2014-Aug-21 23:05N 36°39' E 026°31'812.1
2014-Aug-21 22:28N 36°45' E 026°25'1312.7
2014-Aug-21 21:24N 36°55' E 026°14'1113.2
2014-Aug-21 20:33N 37°05' E 026°07'1312.9
2014-Aug-21 19:33N 37°16' E 025°59'1212.5
2014-Aug-21 18:33N 37°28' E 025°54'2812.3
2014-Aug-21 16:16N 37°55' E 025°45'23510.3
2014-Aug-20 17:30N 40°58' E 028°57'  
2014-Aug-14 14:31N 43°56' E 038°43'1313.9
2014-Aug-14 13:33N 43°52' E 038°26'1414.0
2014-Aug-14 12:34N 43°48' E 038°07'144 7.2
2014-Aug-13 16:32N 43°08' E 034°56'0 0.1
2014-Aug-13 15:32N 43°08' E 034°56'0 0.2
2014-Aug-13 14:32N 43°08' E 034°56'2 0.3
2014-Aug-13 07:16N 43°10' E 034°56'1 1.4
2014-Aug-13 06:32N 43°11' E 034°54'29512.3
2014-Aug-12 06:33N 40°58' E 028°59'  

Dump ship's entire track history